createdAt,value
2022-07-29T00:02:09.596Z,41.39
2022-07-29T00:04:37.011Z,41.71
2022-07-29T00:07:05.065Z,41.68
2022-07-29T00:09:32.660Z,42.00
2022-07-29T00:12:00.959Z,41.72
2022-07-29T00:14:28.196Z,41.88
2022-07-29T00:16:54.994Z,41.70
2022-07-29T00:19:21.671Z,41.57
2022-07-29T00:21:49.984Z,41.84
2022-07-29T00:24:16.855Z,41.87
2022-07-29T00:26:43.670Z,41.99
2022-07-29T00:31:56.941Z,42.06
2022-07-29T00:34:42.186Z,42.14
2022-07-29T00:37:08.858Z,42.32
2022-07-29T00:39:35.457Z,42.05
2022-07-29T00:42:04.998Z,42.12
2022-07-29T00:44:31.607Z,41.93
2022-07-29T00:46:58.419Z,42.11
2022-07-29T00:49:25.096Z,41.87
2022-07-29T00:51:52.237Z,41.82
2022-07-29T00:54:19.090Z,41.73
2022-07-29T00:56:45.969Z,41.80
2022-07-29T00:59:12.634Z,41.58
2022-07-29T01:01:39.268Z,42.01
2022-07-29T01:04:07.488Z,41.96
2022-07-29T01:06:35.132Z,41.59
2022-07-29T01:09:02.532Z,41.86
2022-07-29T01:11:29.111Z,41.96
2022-07-29T01:13:56.542Z,42.03
2022-07-29T01:16:34.019Z,42.37
2022-07-29T01:19:48.739Z,42.30
2022-07-29T01:22:43.216Z,42.39
2022-07-29T01:25:47.398Z,42.68
2022-07-29T01:28:57.482Z,42.58
2022-07-29T01:31:32.670Z,42.84
2022-07-29T01:34:07.791Z,43.32
2022-07-29T01:36:44.378Z,43.24
2022-07-29T01:39:17.961Z,43.32
2022-07-29T01:41:57.083Z,43.40
2022-07-29T01:44:50.171Z,43.46
2022-07-29T01:47:21.696Z,43.54
2022-07-29T01:49:52.505Z,43.28
2022-07-29T01:52:34.961Z,43.70
2022-07-29T01:55:09.531Z,43.60
2022-07-29T01:57:38.518Z,43.45
2022-07-29T02:00:06.433Z,43.84
2022-07-29T02:02:36.315Z,43.48
2022-07-29T02:05:04.186Z,43.65
2022-07-29T02:07:34.388Z,43.93
2022-07-29T02:10:04.339Z,43.63
2022-07-29T02:12:33.926Z,43.86
2022-07-29T02:15:02.391Z,43.39
2022-07-29T02:17:34.393Z,43.19
2022-07-29T02:20:06.307Z,43.32
2022-07-29T02:22:36.296Z,43.16
2022-07-29T02:25:03.718Z,43.02
2022-07-29T02:27:31.952Z,42.98
2022-07-29T02:30:01.492Z,43.26
2022-07-29T02:32:30.402Z,43.36
2022-07-29T02:34:58.462Z,43.41
2022-07-29T02:37:27.218Z,43.47
2022-07-29T02:39:56.039Z,43.49
2022-07-29T02:42:25.115Z,43.71
2022-07-29T02:44:52.496Z,43.96
2022-07-29T02:47:28.762Z,44.05
2022-07-29T02:50:03.564Z,44.03
2022-07-29T02:52:36.069Z,44.16
2022-07-29T02:55:10.619Z,44.30
2022-07-29T02:57:54.904Z,44.67
2022-07-29T03:00:25.192Z,44.56
2022-07-29T03:02:54.875Z,44.43
2022-07-29T03:05:22.424Z,44.55
2022-07-29T03:08:02.073Z,44.69
2022-07-29T03:10:29.376Z,44.61
2022-07-29T03:12:57.597Z,44.88
2022-07-29T03:15:26.589Z,44.74
2022-07-29T03:17:53.958Z,44.94
2022-07-29T03:20:20.806Z,44.83
2022-07-29T03:22:50.577Z,44.84
2022-07-29T03:25:19.640Z,44.74
2022-07-29T03:27:47.283Z,44.73
2022-07-29T03:30:21.791Z,44.73
2022-07-29T03:32:52.036Z,44.57
2022-07-29T03:35:22.262Z,44.63
2022-07-29T03:37:49.826Z,44.34
2022-07-29T03:40:26.359Z,44.34
2022-07-29T03:42:55.830Z,44.26
2022-07-29T03:45:24.078Z,44.37
2022-07-29T03:48:00.653Z,44.33
2022-07-29T03:50:31.242Z,44.56
2022-07-29T03:52:58.495Z,44.56
2022-07-29T03:55:26.480Z,44.48
2022-07-29T03:57:54.006Z,44.77
2022-07-29T04:00:20.661Z,44.74
2022-07-29T04:02:49.611Z,44.48
2022-07-29T04:05:17.639Z,44.40
2022-07-29T04:07:48.649Z,44.21
2022-07-29T04:10:28.338Z,44.65
2022-07-29T04:12:59.751Z,44.53
2022-07-29T04:15:26.843Z,44.54
2022-07-29T04:17:58.566Z,44.24
2022-07-29T04:20:25.248Z,44.23
2022-07-29T04:22:51.808Z,43.94
2022-07-29T04:25:18.409Z,44.26
2022-07-29T04:28:05.279Z,43.63
2022-07-29T04:30:33.161Z,43.93
2022-07-29T04:33:01.880Z,43.13
2022-07-29T04:35:29.916Z,43.37
2022-07-29T04:37:56.496Z,43.54
2022-07-29T04:40:23.251Z,43.60
2022-07-29T04:42:49.825Z,43.22
2022-07-29T04:45:16.488Z,43.65
2022-07-29T04:47:48.981Z,43.16
2022-07-29T04:50:15.629Z,43.16
2022-07-29T04:52:42.249Z,42.87
2022-07-29T04:55:09.356Z,42.08
2022-07-29T04:57:36.177Z,42.33
2022-07-29T05:00:04.301Z,41.96
2022-07-29T05:02:30.945Z,41.91
2022-07-29T05:04:57.664Z,41.95
2022-07-29T05:07:24.539Z,41.79
2022-07-29T05:09:51.225Z,41.03
2022-07-29T05:12:17.904Z,40.97
2022-07-29T05:14:44.479Z,40.32
2022-07-29T05:17:11.140Z,40.30
2022-07-29T05:19:39.410Z,40.00
2022-07-29T05:22:06.828Z,40.07
2022-07-29T05:24:33.547Z,39.73
2022-07-29T05:27:00.176Z,39.54
2022-07-29T05:29:42.907Z,38.92
2022-07-29T05:32:11.913Z,38.89
2022-07-29T05:34:38.528Z,38.74
2022-07-29T05:37:19.211Z,38.97
2022-07-29T05:39:48.213Z,38.82
2022-07-29T05:42:16.906Z,39.49
2022-07-29T05:44:43.559Z,39.19
2022-07-29T05:47:10.134Z,39.08
2022-07-29T05:49:36.811Z,39.05
2022-07-29T05:52:04.131Z,39.34
2022-07-29T05:54:30.689Z,38.57
2022-07-29T05:56:57.609Z,38.23
2022-07-29T05:59:29.876Z,38.36
2022-07-29T06:01:58.228Z,38.93
2022-07-29T06:04:25.366Z,38.42
2022-07-29T06:06:52.067Z,38.14
2022-07-29T06:09:18.773Z,36.78
2022-07-29T06:11:45.352Z,35.23
2022-07-29T06:14:12.233Z,32.98
2022-07-29T06:16:39.013Z,32.96
2022-07-29T06:19:05.772Z,31.35
2022-07-29T06:21:32.341Z,30.98
2022-07-29T06:23:58.919Z,30.27
2022-07-29T06:26:30.647Z,28.88
2022-07-29T06:28:58.191Z,26.27
2022-07-29T06:31:24.906Z,25.16
2022-07-29T06:33:51.658Z,23.24
2022-07-29T06:36:21.716Z,22.80
2022-07-29T06:38:51.299Z,20.37
2022-07-29T06:41:19.121Z,18.44
2022-07-29T06:43:52.223Z,18.10
2022-07-29T06:46:22.312Z,20.05
2022-07-29T06:48:50.171Z,22.42
2022-07-29T06:51:22.283Z,21.45
2022-07-29T06:53:58.082Z,19.96
2022-07-29T06:56:26.645Z,19.64
2022-07-29T06:58:53.286Z,18.42
2022-07-29T07:01:20.791Z,19.16
2022-07-29T07:03:48.781Z,18.41
2022-07-29T07:06:15.653Z,19.76
2022-07-29T07:08:42.293Z,19.61
2022-07-29T07:11:09.743Z,19.09
2022-07-29T07:13:36.648Z,19.59
2022-07-29T07:16:04.265Z,19.35
2022-07-29T07:18:31.305Z,21.71
2022-07-29T07:20:59.300Z,23.47
2022-07-29T07:23:26.050Z,23.21
2022-07-29T07:25:52.941Z,21.65
2022-07-29T07:28:24.620Z,20.89
2022-07-29T07:30:52.709Z,18.39
2022-07-29T07:33:19.651Z,18.35
2022-07-29T07:35:46.476Z,17.99
2022-07-29T07:38:13.540Z,17.26
2022-07-29T07:40:40.167Z,17.50
2022-07-29T07:43:07.011Z,16.44
2022-07-29T07:45:34.058Z,14.88
2022-07-29T07:48:00.978Z,14.89
2022-07-29T07:50:27.630Z,14.35
2022-07-29T07:52:58.635Z,14.19
2022-07-29T07:55:26.575Z,15.52
2022-07-29T07:57:53.643Z,15.05
2022-07-29T08:00:23.024Z,15.50
2022-07-29T08:02:51.042Z,15.15
2022-07-29T08:05:18.278Z,14.09
2022-07-29T08:07:46.959Z,13.75
2022-07-29T08:10:16.011Z,12.71
2022-07-29T08:12:44.517Z,12.36
2022-07-29T08:15:11.319Z,14.00
2022-07-29T08:17:37.977Z,14.61
2022-07-29T08:20:05.285Z,15.50
2022-07-29T08:22:32.255Z,15.45
2022-07-29T08:24:58.860Z,16.09
2022-07-29T08:27:42.451Z,15.73
2022-07-29T08:30:11.330Z,14.63
2022-07-29T08:32:53.303Z,14.66
2022-07-29T08:35:22.856Z,14.14
2022-07-29T08:37:49.724Z,13.20
2022-07-29T08:40:16.476Z,12.00
2022-07-29T08:42:43.212Z,11.25
2022-07-29T08:45:10.515Z,12.35
2022-07-29T08:47:40.856Z,11.27
2022-07-29T08:50:09.217Z,10.98
2022-07-29T08:52:38.797Z,11.52
2022-07-29T08:55:07.488Z,11.76
2022-07-29T08:57:35.279Z,12.27
2022-07-29T09:00:08.099Z,12.28
2022-07-29T09:02:46.667Z,14.67
2022-07-29T09:05:14.452Z,14.99
2022-07-29T09:07:44.190Z,15.67
2022-07-29T09:10:11.425Z,15.81
2022-07-29T09:12:38.466Z,15.05
2022-07-29T09:15:05.726Z,14.68
2022-07-29T09:17:47.059Z,14.31
2022-07-29T09:20:19.215Z,13.21
2022-07-29T09:22:50.166Z,12.97
2022-07-29T09:25:34.100Z,14.66
2022-07-29T09:28:09.052Z,16.50
2022-07-29T09:30:36.993Z,15.89
2022-07-29T09:33:04.438Z,15.37
2022-07-29T09:35:32.086Z,16.20
2022-07-29T09:37:58.752Z,16.51
2022-07-29T09:40:28.850Z,16.78
2022-07-29T09:42:59.319Z,16.57
2022-07-29T09:45:34.025Z,16.27
2022-07-29T09:48:13.626Z,15.27
2022-07-29T09:50:42.119Z,15.30
2022-07-29T09:53:10.500Z,16.00
2022-07-29T09:55:53.042Z,17.04
2022-07-29T09:58:21.577Z,17.78
2022-07-29T10:00:49.639Z,16.63
2022-07-29T10:03:17.154Z,17.59
2022-07-29T10:05:45.219Z,18.14
2022-07-29T10:08:13.456Z,17.56
2022-07-29T10:10:43.508Z,17.86
2022-07-29T10:13:16.418Z,16.97
2022-07-29T10:15:46.153Z,16.89
2022-07-29T10:18:18.444Z,18.00
2022-07-29T10:20:46.128Z,20.02
2022-07-29T10:23:13.673Z,19.19
2022-07-29T10:25:45.632Z,18.03
2022-07-29T10:28:16.261Z,17.11
2022-07-29T10:30:45.580Z,16.98
2022-07-29T10:33:26.269Z,17.46
2022-07-29T10:36:14.306Z,17.46
2022-07-29T10:38:59.193Z,17.11
2022-07-29T10:41:43.906Z,17.80
2022-07-29T10:44:19.086Z,19.32
2022-07-29T10:46:47.129Z,18.94
2022-07-29T10:49:25.382Z,21.78
2022-07-29T10:52:01.057Z,22.34
2022-07-29T10:54:36.678Z,23.11
2022-07-29T10:57:53.207Z,21.12
2022-07-29T11:00:28.668Z,20.90
2022-07-29T11:02:57.564Z,21.07
2022-07-29T11:05:32.073Z,21.47
2022-07-29T11:08:19.958Z,21.46
2022-07-29T11:10:52.544Z,21.36
2022-07-29T11:13:51.085Z,21.33
2022-07-29T11:16:25.002Z,21.54
2022-07-29T11:19:29.983Z,21.75
2022-07-29T11:22:05.454Z,21.28
2022-07-29T11:24:34.959Z,21.97
2022-07-29T11:27:13.250Z,21.70
2022-07-29T11:29:49.874Z,21.59
2022-07-29T11:32:23.373Z,21.80
2022-07-29T11:35:17.168Z,21.50
2022-07-29T11:37:56.408Z,20.05
2022-07-29T11:40:24.691Z,20.29
2022-07-29T11:42:52.394Z,18.98
2022-07-29T11:45:43.862Z,19.83
2022-07-29T11:48:29.266Z,19.31
2022-07-29T11:50:59.049Z,20.05
2022-07-29T11:53:25.882Z,19.89
2022-07-29T11:55:58.179Z,19.96
2022-07-29T11:58:26.143Z,19.81
2022-07-29T12:00:53.224Z,18.85
2022-07-29T12:03:32.824Z,19.37
2022-07-29T12:06:02.698Z,20.73
2022-07-29T12:08:29.275Z,20.62
2022-07-29T12:10:55.963Z,21.79
2022-07-29T12:13:23.033Z,21.03
2022-07-29T12:16:03.834Z,20.86
2022-07-29T12:18:30.546Z,20.23
2022-07-29T12:21:04.861Z,19.59
2022-07-29T12:23:35.441Z,20.24
2022-07-29T12:26:07.668Z,21.40
2022-07-29T12:28:40.255Z,21.27
2022-07-29T12:31:08.083Z,21.19
2022-07-29T12:33:36.049Z,21.46
2022-07-29T12:36:10.397Z,21.44
2022-07-29T12:38:41.779Z,21.43
2022-07-29T12:41:08.451Z,21.24
2022-07-29T12:43:35.114Z,21.08
2022-07-29T12:46:16.181Z,22.25
2022-07-29T12:48:44.527Z,21.36
2022-07-29T12:51:13.331Z,21.65
2022-07-29T12:53:40.645Z,21.83
2022-07-29T12:56:40.682Z,22.56
2022-07-29T12:59:19.700Z,22.30
2022-07-29T13:01:51.602Z,22.09
2022-07-29T13:04:29.464Z,22.45
2022-07-29T13:07:08.342Z,21.37
2022-07-29T13:09:39.574Z,22.26
2022-07-29T13:12:11.459Z,21.76
2022-07-29T13:14:43.365Z,22.03
2022-07-29T13:17:14.218Z,22.06
2022-07-29T13:19:43.646Z,21.45
2022-07-29T13:22:12.314Z,22.26
2022-07-29T13:24:50.362Z,22.39
2022-07-29T13:27:22.577Z,22.16
2022-07-29T13:29:52.379Z,21.49
2022-07-29T13:32:20.000Z,21.10
2022-07-29T13:35:01.636Z,20.40
2022-07-29T13:37:33.941Z,21.29
2022-07-29T13:40:01.168Z,20.97
2022-07-29T13:42:28.060Z,22.04
2022-07-29T13:44:54.754Z,22.28
2022-07-29T13:47:22.513Z,22.73
2022-07-29T13:49:59.585Z,22.90
2022-07-29T13:52:26.213Z,22.85
2022-07-29T13:54:52.772Z,21.88
2022-07-29T13:57:20.267Z,22.41
2022-07-29T13:59:51.871Z,22.59
2022-07-29T14:02:20.622Z,22.25
2022-07-29T14:04:47.432Z,23.11
2022-07-29T14:07:16.408Z,22.48
2022-07-29T14:09:43.619Z,23.04
2022-07-29T14:12:10.725Z,22.91
2022-07-29T14:14:37.797Z,23.36
2022-07-29T14:17:07.393Z,23.46
2022-07-29T14:19:36.685Z,23.36
2022-07-29T14:22:05.308Z,22.27
2022-07-29T14:24:32.462Z,22.18
2022-07-29T14:27:03.528Z,23.03
2022-07-29T14:29:37.721Z,22.39
2022-07-29T14:32:10.038Z,22.66
2022-07-29T14:34:37.678Z,22.44
2022-07-29T14:37:09.419Z,22.48
2022-07-29T14:39:43.337Z,22.46
2022-07-29T14:42:12.897Z,22.82
2022-07-29T14:44:41.450Z,22.73
2022-07-29T14:47:08.555Z,22.43
2022-07-29T14:49:35.941Z,22.91
2022-07-29T14:52:03.028Z,22.16
2022-07-29T14:54:29.645Z,22.75
2022-07-29T14:56:58.268Z,23.53
2022-07-29T14:59:25.702Z,22.41
2022-07-29T15:01:52.352Z,21.70
2022-07-29T15:04:19.023Z,23.28
2022-07-29T15:06:45.830Z,22.15
2022-07-29T15:09:12.877Z,22.50
2022-07-29T15:11:39.527Z,22.75
2022-07-29T15:14:07.157Z,22.68
2022-07-29T15:16:37.246Z,22.53
2022-07-29T15:19:04.720Z,23.00
2022-07-29T15:21:31.398Z,22.54
2022-07-29T15:23:58.044Z,22.28
2022-07-29T15:26:24.664Z,22.51
2022-07-29T15:28:51.351Z,22.84
2022-07-29T15:31:19.761Z,23.17
2022-07-29T15:33:46.469Z,22.32
2022-07-29T15:36:25.436Z,22.81
2022-07-29T15:39:00.177Z,22.63
2022-07-29T15:41:26.805Z,22.93
2022-07-29T15:43:53.492Z,23.10
2022-07-29T15:46:39.379Z,23.17
2022-07-29T15:49:07.139Z,23.68
2022-07-29T15:51:34.192Z,23.20
2022-07-29T15:54:04.900Z,23.00
2022-07-29T15:56:32.139Z,23.38
2022-07-29T15:58:58.790Z,23.17
2022-07-29T16:01:25.988Z,23.14
2022-07-29T16:03:53.072Z,23.04
2022-07-29T16:06:19.959Z,22.71
2022-07-29T16:08:46.749Z,22.14
2022-07-29T16:11:13.414Z,23.18
2022-07-29T16:13:40.012Z,22.29
2022-07-29T16:16:06.715Z,23.06
2022-07-29T16:18:33.336Z,23.71
2022-07-29T16:20:59.957Z,23.70
2022-07-29T16:23:26.680Z,24.15
2022-07-29T16:26:01.269Z,24.21
2022-07-29T16:28:29.140Z,24.01
2022-07-29T16:30:55.851Z,23.52
2022-07-29T16:33:23.516Z,23.23
2022-07-29T16:35:50.902Z,24.36
2022-07-29T16:38:17.582Z,24.46
2022-07-29T16:40:44.284Z,24.01
2022-07-29T16:43:11.032Z,24.00
2022-07-29T16:45:45.056Z,24.44
2022-07-29T16:48:14.234Z,24.86
2022-07-29T16:50:40.883Z,24.64
2022-07-29T16:53:10.317Z,24.24
2022-07-29T16:55:37.019Z,24.18
2022-07-29T16:58:03.681Z,24.18
2022-07-29T17:00:30.388Z,24.26
2022-07-29T17:02:57.072Z,24.03
2022-07-29T17:05:23.778Z,24.30
2022-07-29T17:07:50.394Z,24.72
2022-07-29T17:10:17.177Z,25.20
2022-07-29T17:12:44.279Z,25.27
2022-07-29T17:15:12.731Z,25.46
2022-07-29T17:17:55.217Z,25.00
2022-07-29T17:20:23.508Z,25.35
2022-07-29T17:22:50.190Z,26.05
2022-07-29T17:25:20.925Z,25.85
2022-07-29T17:27:49.671Z,26.30
2022-07-29T17:30:16.525Z,26.14
2022-07-29T17:32:43.142Z,26.54
2022-07-29T17:35:28.230Z,27.02
2022-07-29T17:37:55.186Z,27.30
2022-07-29T17:40:22.185Z,27.55
2022-07-29T17:42:48.769Z,27.70
2022-07-29T17:45:15.637Z,27.62
2022-07-29T17:47:42.264Z,27.43
2022-07-29T17:50:09.090Z,27.29
2022-07-29T17:52:35.717Z,27.67
2022-07-29T17:55:02.676Z,27.97
2022-07-29T17:57:29.391Z,28.28
2022-07-29T17:59:55.983Z,28.67
2022-07-29T18:02:22.687Z,28.66
2022-07-29T18:04:51.825Z,29.42
2022-07-29T18:07:18.602Z,29.90
2022-07-29T18:09:45.268Z,30.45
2022-07-29T18:12:11.846Z,30.54
2022-07-29T18:14:38.720Z,30.61
2022-07-29T18:17:05.364Z,31.04
2022-07-29T18:19:31.989Z,31.23
2022-07-29T18:22:04.838Z,31.44
2022-07-29T18:24:32.518Z,32.06
2022-07-29T18:26:59.382Z,31.83
2022-07-29T18:29:28.934Z,31.93
2022-07-29T18:31:56.040Z,31.42
2022-07-29T18:34:22.624Z,31.62
2022-07-29T18:36:49.190Z,31.92
2022-07-29T18:39:20.748Z,32.07
2022-07-29T18:41:51.606Z,31.94
2022-07-29T18:44:21.935Z,31.74
2022-07-29T18:46:51.056Z,32.28
2022-07-29T18:49:18.094Z,32.56
2022-07-29T18:51:44.802Z,32.98
2022-07-29T18:54:11.375Z,32.88
2022-07-29T18:56:38.082Z,33.13
2022-07-29T18:59:05.053Z,33.39
2022-07-29T19:01:32.953Z,33.98
2022-07-29T19:04:00.253Z,33.70
2022-07-29T19:06:26.834Z,33.80
2022-07-29T19:08:53.746Z,34.39
2022-07-29T19:11:20.376Z,34.66
2022-07-29T19:13:47.035Z,34.34
2022-07-29T19:16:14.500Z,34.91
2022-07-29T19:18:41.663Z,34.82
2022-07-29T19:21:08.801Z,34.78
2022-07-29T19:24:06.025Z,34.78
2022-07-29T19:26:22.145Z,35.59
2022-07-29T19:28:49.313Z,35.34
2022-07-29T19:31:16.001Z,36.07
2022-07-29T19:33:42.828Z,36.18
2022-07-29T19:36:09.464Z,36.45
2022-07-29T19:38:38.184Z,36.99
2022-07-29T19:41:06.255Z,36.70
2022-07-29T19:43:50.409Z,37.30
2022-07-29T19:46:20.444Z,37.43
2022-07-29T19:48:47.296Z,37.27
2022-07-29T19:51:14.066Z,37.66
2022-07-29T19:53:40.707Z,37.93
2022-07-29T19:56:08.910Z,38.16
2022-07-29T19:58:36.215Z,38.48
2022-07-29T20:01:10.294Z,38.56
2022-07-29T20:03:39.877Z,38.66
2022-07-29T20:06:07.620Z,38.41
2022-07-29T20:08:34.697Z,39.00
2022-07-29T20:11:01.807Z,38.53
2022-07-29T20:13:28.434Z,38.36
2022-07-29T20:15:55.120Z,38.61
2022-07-29T20:18:21.821Z,38.61
2022-07-29T20:20:49.655Z,38.72
2022-07-29T20:23:17.115Z,38.54
2022-07-29T20:25:43.743Z,38.81
2022-07-29T20:28:10.306Z,38.68
2022-07-29T20:30:38.575Z,38.81
2022-07-29T20:33:05.812Z,39.20
2022-07-29T20:35:32.684Z,39.20
2022-07-29T20:38:00.419Z,39.95
2022-07-29T20:40:29.037Z,40.04
2022-07-29T20:42:56.051Z,39.75
2022-07-29T20:45:23.898Z,40.41
2022-07-29T20:47:51.954Z,40.43
2022-07-29T20:50:21.282Z,40.31
2022-07-29T20:52:51.644Z,40.33
2022-07-29T20:55:18.368Z,41.23
2022-07-29T20:57:44.982Z,41.00
2022-07-29T21:00:11.999Z,41.48
2022-07-29T21:02:38.748Z,42.14
2022-07-29T21:05:06.049Z,42.55
2022-07-29T21:07:32.723Z,42.99
2022-07-29T21:09:59.346Z,43.46
2022-07-29T21:12:25.986Z,43.63
2022-07-29T21:14:52.614Z,43.89
2022-07-29T21:17:22.550Z,44.24
2022-07-29T21:19:52.545Z,44.30
2022-07-29T21:22:21.848Z,44.54
2022-07-29T21:24:49.143Z,44.88
2022-07-29T21:27:34.318Z,44.85
2022-07-29T21:30:01.105Z,45.24
2022-07-29T21:32:30.313Z,45.54
2022-07-29T21:34:57.736Z,45.83
2022-07-29T21:37:24.505Z,46.10
2022-07-29T21:39:51.141Z,46.38
2022-07-29T21:42:17.926Z,46.66
2022-07-29T21:44:44.571Z,46.84
2022-07-29T21:47:11.899Z,47.30
2022-07-29T21:49:38.793Z,47.87
2022-07-29T21:52:06.111Z,48.31
2022-07-29T21:54:34.649Z,48.42
2022-07-29T21:57:01.369Z,48.25
2022-07-29T21:59:28.003Z,48.27
2022-07-29T22:01:54.846Z,48.38
2022-07-29T22:04:21.655Z,48.97
2022-07-29T22:06:48.369Z,49.06
2022-07-29T22:09:15.250Z,49.38
2022-07-29T22:11:42.045Z,49.61
2022-07-29T22:14:08.645Z,49.60
2022-07-29T22:16:35.299Z,50.17
2022-07-29T22:19:03.959Z,50.48
2022-07-29T22:21:30.971Z,50.41
2022-07-29T22:23:57.805Z,50.96
2022-07-29T22:26:24.449Z,51.35
2022-07-29T22:28:51.020Z,51.45
2022-07-29T22:31:17.698Z,51.70
2022-07-29T22:33:44.311Z,51.78
2022-07-29T22:36:10.932Z,51.47
2022-07-29T22:38:37.636Z,51.20
2022-07-29T22:41:04.296Z,51.77
2022-07-29T22:43:30.880Z,52.15
2022-07-29T22:45:57.613Z,52.25
2022-07-29T22:48:24.353Z,52.41
2022-07-29T22:50:51.025Z,52.64
2022-07-29T22:53:17.681Z,52.37
2022-07-29T22:55:45.603Z,52.78
2022-07-29T22:58:12.509Z,53.13
2022-07-29T23:00:39.196Z,52.91
2022-07-29T23:03:05.766Z,53.12
2022-07-29T23:05:32.794Z,53.11
2022-07-29T23:07:59.816Z,53.71
2022-07-29T23:10:26.406Z,53.53
2022-07-29T23:12:53.045Z,53.71
2022-07-29T23:15:19.817Z,54.21
2022-07-29T23:17:46.387Z,54.04
2022-07-29T23:20:14.913Z,54.04
2022-07-29T23:22:41.873Z,54.58
2022-07-29T23:25:08.702Z,54.71
2022-07-29T23:27:35.487Z,55.16
2022-07-29T23:30:02.742Z,55.24
2022-07-29T23:32:29.403Z,55.00
2022-07-29T23:34:56.047Z,55.30
2022-07-29T23:37:22.944Z,55.94
2022-07-29T23:39:49.562Z,55.76
2022-07-29T23:42:16.129Z,55.24
2022-07-29T23:44:43.138Z,54.91
2022-07-29T23:47:09.783Z,54.59
2022-07-29T23:49:36.334Z,54.55
2022-07-29T23:52:02.925Z,54.59
2022-07-29T23:54:29.512Z,54.15
2022-07-29T23:56:57.835Z,54.25
2022-07-29T23:59:24.963Z,54.25
